Time;durP1;ratioP1;P1;durP2;ratioP2;P2;SDS_P1;SDS_P2;PMS_P1;PMS_P2;Temp;Humidity;BMP_temperature;BMP_pressure;BME280_temperature;BME280_humidity;BME280_pressure;Samples;Min_cycle;Max_cycle;Signal;HPM_P1;HPM_P2
2023/10/29 00:02:16;;;;;;;4.00;3.60;;;;;;;13.85;100.00;98806.38;104375;1254;72302;-59
2023/10/29 00:04:44;;;;;;;4.00;3.70;;;;;;;13.84;100.00;98809.02;104397;1256;61604;-60
2023/10/29 00:07:12;;;;;;;;;;;;;;;13.87;100.00;98805.00;104321;1257;59422;-60
2023/10/29 00:09:39;;;;;;;;;;;;;;;13.87;100.00;98806.38;104432;1269;73745;-59
2023/10/29 00:12:07;;;;;;;3.30;3.00;;;;;;;13.86;100.00;98808.57;104435;1266;68194;-59
2023/10/29 00:14:35;;;;;;;;;;;;;;;13.89;100.00;98815.38;104458;1269;72475;-59
2023/10/29 00:17:02;;;;;;;;;;;;;;;13.87;100.00;98818.50;104367;1257;61453;-59
2023/10/29 00:19:32;;;;;;;3.20;3.00;;;;;;;13.81;100.00;98821.56;104329;1253;60515;-59
2023/10/29 00:21:59;;;;;;;3.80;3.40;;;;;;;13.84;100.00;98821.58;104382;1260;73603;-60
2023/10/29 00:24:27;;;;;;;4.30;3.90;;;;;;;13.84;100.00;98819.46;104387;1259;69125;-59
2023/10/29 00:26:55;;;;;;;3.80;3.50;;;;;;;13.81;100.00;98821.40;104369;1263;71943;-60
2023/10/29 00:29:23;;;;;;;3.90;3.60;;;;;;;13.78;100.00;98821.76;104453;1262;61498;-60
2023/10/29 00:31:51;;;;;;;;;;;;;;;13.77;100.00;98823.61;104350;1259;59712;-59
2023/10/29 00:34:19;;;;;;;3.30;3.10;;;;;;;13.77;100.00;98827.11;104352;1251;74725;-60
2023/10/29 00:36:47;;;;;;;3.90;3.60;;;;;;;13.83;100.00;98825.15;104460;1251;69236;-58
2023/10/29 00:39:14;;;;;;;3.90;3.60;;;;;;;13.86;100.00;98822.13;104409;1267;73325;-59
2023/10/29 00:41:42;;;;;;;3.70;3.40;;;;;;;13.88;100.00;98830.44;104660;1253;60741;-60
2023/10/29 00:44:10;;;;;;;3.90;3.50;;;;;;;13.89;100.00;98838.51;104422;1251;60639;-59
2023/10/29 00:46:40;;;;;;;3.60;3.40;;;;;;;13.90;100.00;98840.30;104365;1258;72689;-58
2023/10/29 00:49:08;;;;;;;3.10;2.90;;;;;;;13.92;100.00;98846.00;108213;1252;68282;-59
2023/10/29 00:51:36;;;;;;;3.80;3.50;;;;;;;13.93;100.00;98843.44;106196;1253;71328;-62
2023/10/29 00:54:04;;;;;;;;;;;;;;;13.97;100.00;98844.09;104345;1257;61764;-59
2023/10/29 00:56:32;;;;;;;;;;;;;;;14.00;100.00;98842.31;105227;1254;60914;-59
2023/10/29 00:59:02;;;;;;;3.10;2.90;;;;;;;13.94;100.00;98847.10;104560;1254;73619;-59
2023/10/29 01:01:30;;;;;;;;;;;;;;;13.93;100.00;98845.10;104305;1259;70005;-59
2023/10/29 01:03:59;;;;;;;3.50;3.20;;;;;;;13.95;100.00;98847.92;104366;1254;73375;-59
2023/10/29 01:06:27;;;;;;;3.60;3.20;;;;;;;13.94;100.00;98852.06;104311;1254;62384;-58
2023/10/29 01:08:55;;;;;;;3.40;3.10;;;;;;;13.88;100.00;98855.44;104314;1256;59866;-58
2023/10/29 01:11:23;;;;;;;;;;;;;;;13.89;100.00;98857.52;104258;1257;73551;-59
2023/10/29 01:13:51;;;;;;;3.50;3.20;;;;;;;13.91;100.00;98858.08;104445;1251;70081;-59
2023/10/29 01:16:18;;;;;;;;;;;;;;;13.91;100.00;98853.82;104397;1256;72550;-60
2023/10/29 01:18:47;;;;;;;3.00;2.80;;;;;;;13.94;100.00;98856.80;104329;1257;60413;-60
2023/10/29 01:21:16;;;;;;;6.50;3.40;;;;;;;13.94;100.00;98860.45;104272;1259;60604;-60
2023/10/29 01:23:43;;;;;;;3.50;3.20;;;;;;;13.92;100.00;98853.97;104413;1256;74040;-58
2023/10/29 01:26:11;;;;;;;;;;;;;;;13.89;100.00;98853.83;104362;1257;68247;-60
2023/10/29 01:28:40;;;;;;;3.10;2.90;;;;;;;13.91;100.00;98850.67;104301;1254;72336;-60
2023/10/29 01:31:07;;;;;;;2.80;2.60;;;;;;;13.93;100.00;98852.69;104454;1251;60494;-59
2023/10/29 01:33:35;;;;;;;3.20;2.90;;;;;;;13.94;100.00;98854.66;104318;1259;60624;-59
2023/10/29 01:36:04;;;;;;;3.10;2.60;;;;;;;13.95;100.00;98856.58;104407;1257;74085;-59
2023/10/29 01:38:32;;;;;;;5.00;3.00;;;;;;;13.94;100.00;98856.80;104301;1257;69145;-59
2023/10/29 01:41:00;;;;;;;3.80;3.40;;;;;;;13.95;100.00;98857.45;104443;1256;73314;-61
2023/10/29 01:43:27;;;;;;;3.90;3.30;;;;;;;13.98;100.00;98858.83;104387;1259;60909;-58
2023/10/29 01:45:55;;;;;;;4.80;3.10;;;;;;;13.98;100.00;98867.29;104418;1254;60545;-60
2023/10/29 01:48:24;;;;;;;3.90;3.40;;;;;;;13.96;100.00;98864.73;104373;1260;73097;-60
2023/10/29 01:50:52;;;;;;;3.50;3.10;;;;;;;13.98;100.00;98869.89;107619;1251;68284;-60
2023/10/29 01:53:19;;;;;;;;;;;;;;;14.00;100.00;98869.58;104499;1270;72203;-61
2023/10/29 01:55:47;;;;;;;;;;;;;;;14.07;100.00;98871.79;104725;1253;61448;-59
2023/10/29 01:58:15;;;;;;;6.20;3.30;;;;;;;14.10;100.00;98875.77;104479;1258;60460;-61
2023/10/29 02:00:42;;;;;;;3.50;3.20;;;;;;;14.11;100.00;98877.11;104306;1254;73959;-60
2023/10/29 02:03:11;;;;;;;3.40;3.10;;;;;;;14.12;100.00;98885.72;104363;1257;69029;-60
2023/10/29 02:05:40;;;;;;;3.30;3.10;;;;;;;14.12;100.00;98895.04;104381;1254;72887;-60
2023/10/29 02:08:07;;;;;;;3.80;3.50;;;;;;;14.10;100.00;98900.29;104391;1253;61458;-60
2023/10/29 02:10:35;;;;;;;;;;;;;;;14.09;100.00;98907.23;104262;1257;60586;-60
2023/10/29 02:13:03;;;;;;;3.10;2.90;;;;;;;14.10;100.00;98912.43;104381;1254;73573;-59
2023/10/29 02:15:31;;;;;;;3.30;3.10;;;;;;;14.11;100.00;98919.40;104318;1260;69047;-59
2023/10/29 02:17:58;;;;;;;3.40;3.10;;;;;;;14.13;100.00;98924.88;104259;1259;72432;-58
2023/10/29 02:20:26;;;;;;;;;;;;;;;14.13;100.00;98926.52;104403;1257;60561;-59
2023/10/29 02:22:54;;;;;;;6.00;3.70;;;;;;;14.16;100.00;98924.92;104353;1259;60546;-60
2023/10/29 02:25:22;;;;;;;4.90;3.80;;;;;;;14.19;100.00;98921.71;104337;1259;74319;-59
2023/10/29 02:27:49;;;;;;;3.20;3.00;;;;;;;14.23;100.00;98927.08;104345;1257;69122;-59
2023/10/29 02:30:17;;;;;;;3.90;3.50;;;;;;;14.20;100.00;98936.05;104392;1263;72625;-60
2023/10/29 02:32:45;;;;;;;3.70;3.40;;;;;;;14.16;100.00;98944.94;104320;1256;61357;-59
2023/10/29 02:35:14;;;;;;;5.20;3.90;;;;;;;14.15;100.00;98952.83;104440;1254;60517;-59
2023/10/29 02:37:41;;;;;;;4.10;3.80;;;;;;;14.13;100.00;98955.40;104511;1267;73583;-61
2023/10/29 02:40:12;;;;;;;4.30;3.90;;;;;;;14.14;100.00;98965.91;104452;1251;70040;-60
2023/10/29 02:42:40;;;;;;;5.30;3.60;;;;;;;14.16;100.00;98968.27;104448;1266;72095;-60
2023/10/29 02:45:08;;;;;;;3.20;3.00;;;;;;;14.17;100.00;98968.36;104420;1257;61494;-60
2023/10/29 02:47:37;;;;;;;4.30;3.40;;;;;;;14.22;100.00;98976.33;104345;1258;60098;-60
2023/10/29 02:50:05;;;;;;;3.60;3.30;;;;;;;14.28;100.00;98975.22;108312;1254;74590;-60
2023/10/29 02:52:33;;;;;;;;;;;;;;;14.33;100.00;98975.70;106773;1251;69228;-59
2023/10/29 02:55:00;;;;;;;;;;;;;;;14.40;100.00;98982.13;104572;1257;71255;-59
2023/10/29 02:57:29;;;;;;;;;;;;;;;14.42;100.00;98991.33;104777;1251;60511;-60
2023/10/29 02:59:56;;;;;;;2.50;2.30;;;;;;;14.42;100.00;99005.25;104597;1258;60568;-60
2023/10/29 03:02:24;;;;;;;3.10;2.80;;;;;;;14.41;100.00;99008.85;104446;1251;73781;-60
2023/10/29 03:04:52;;;;;;;3.00;2.70;;;;;;;14.40;100.00;99015.11;104419;1270;69292;-60
2023/10/29 03:07:19;;;;;;;3.60;3.30;;;;;;;14.41;100.00;99021.52;104354;1259;71571;-60
2023/10/29 03:09:47;;;;;;;3.30;3.10;;;;;;;14.40;100.00;99021.96;104408;1259;62364;-59
2023/10/29 03:12:15;;;;;;;3.10;2.90;;;;;;;14.42;100.00;99020.98;104462;1252;60528;-60
2023/10/29 03:14:43;;;;;;;3.10;2.90;;;;;;;14.40;100.00;99025.98;104361;1258;74642;-60
2023/10/29 03:17:11;;;;;;;;;;;;;;;14.38;100.00;99035.27;104352;1263;69041;-60
2023/10/29 03:19:39;;;;;;;;;;;;;;;14.37;100.00;99034.66;104446;1257;72190;-59
2023/10/29 03:22:06;;;;;;;3.20;2.60;;;;;;;14.35;100.00;99038.02;104390;1263;60530;-59
2023/10/29 03:24:34;;;;;;;6.60;2.60;;;;;;;14.34;100.00;99040.36;104340;1260;60453;-59
2023/10/29 03:27:02;;;;;;;3.60;3.30;;;;;;;14.36;100.00;99040.35;104399;1257;73695;-59
2023/10/29 03:29:30;;;;;;;;;;;;;;;14.38;100.00;99043.77;104434;1254;69218;-60
2023/10/29 03:31:58;;;;;;;3.10;2.80;;;;;;;14.34;100.00;99038.73;104343;1251;73271;-60
2023/10/29 03:34:26;;;;;;;;;;;;;;;14.32;100.00;99036.62;104351;1258;61480;-59
2023/10/29 03:36:53;;;;;;;2.80;2.60;;;;;;;14.32;100.00;99039.77;104382;1256;59656;-59
2023/10/29 03:39:21;;;;;;;4.30;3.90;;;;;;;14.32;100.00;99039.77;104628;1260;74085;-60
2023/10/29 03:41:49;;;;;;;5.70;5.20;;;;;;;14.33;100.00;99040.81;104281;1260;70103;-60
2023/10/29 03:44:16;;;;;;;;;;;;;;;14.32;100.00;99043.27;104326;1255;73396;-60
2023/10/29 03:46:50;;;;;;;7.00;5.50;;;;;;;14.27;100.00;99038.71;104362;1254;61641;-60
2023/10/29 03:49:18;;;;;;;6.50;5.90;;;;;;;14.16;100.00;99020.92;104350;1254;60815;-63
2023/10/29 03:51:47;;;;;;;6.60;4.80;;;;;;;14.22;100.00;99025.13;108181;1254;73743;-60
2023/10/29 03:54:14;;;;;;;4.00;3.70;;;;;;;14.24;100.00;99029.08;105357;1254;69537;-59
2023/10/29 03:56:42;;;;;;;7.50;4.50;;;;;;;14.23;100.00;99037.92;104703;1257;72500;-60
2023/10/29 03:59:10;;;;;;;;;;;;;;;14.20;100.00;99032.79;104305;1259;61367;-64
2023/10/29 04:01:37;;;;;;;3.80;3.50;;;;;;;14.21;100.00;99029.95;104611;1253;60505;-59
2023/10/29 04:04:05;;;;;;;;;;;;;;;14.20;100.00;99027.20;104448;1254;73623;-60
2023/10/29 04:06:33;;;;;;;3.50;3.20;;;;;;;14.17;100.00;99008.73;104294;1257;69181;-59
2023/10/29 04:09:01;;;;;;;3.50;3.20;;;;;;;14.13;100.00;99010.41;104380;1266;74361;-60
2023/10/29 04:11:29;;;;;;;3.20;2.90;;;;;;;14.12;100.00;99008.50;104391;1259;62167;-60
2023/10/29 04:13:57;;;;;;;;;;;;;;;14.15;100.00;99016.80;104379;1255;60547;-60
2023/10/29 04:16:24;;;;;;;3.30;2.80;;;;;;;14.17;100.00;99010.48;104318;1259;74521;-58
2023/10/29 04:18:52;;;;;;;;;;;;;;;14.17;100.00;99016.30;104384;1266;69163;-60
2023/10/29 04:21:20;;;;;;;3.80;2.50;;;;;;;14.16;100.00;99012.34;104328;1258;72467;-61
2023/10/29 04:23:48;;;;;;;2.40;2.20;;;;;;;14.16;100.00;99017.56;104304;1270;61407;-58
2023/10/29 04:26:15;;;;;;;;;;;;;;;14.16;100.00;99016.88;104470;1254;60559;-58
2023/10/29 04:28:43;;;;;;;2.30;2.10;;;;;;;14.13;100.00;99020.26;104595;1258;73763;-59
2023/10/29 04:31:11;;;;;;;2.90;2.70;;;;;;;14.09;100.00;99015.99;104289;1262;69579;-58
2023/10/29 04:33:39;;;;;;;2.70;2.50;;;;;;;14.10;100.00;99024.55;104391;1257;72342;-56
2023/10/29 04:36:07;;;;;;;2.70;2.50;;;;;;;14.11;100.00;99033.45;104487;1266;61482;-58
2023/10/29 04:38:36;;;;;;;3.00;2.70;;;;;;;14.13;100.00;99043.73;104416;1254;60511;-59
2023/10/29 04:41:04;;;;;;;2.70;2.50;;;;;;;14.13;100.00;99048.13;104625;1257;72709;-58
2023/10/29 04:43:32;;;;;;;2.80;2.50;;;;;;;14.12;100.00;99054.38;104224;1275;69329;-58
2023/10/29 04:46:00;;;;;;;;;;;;;;;14.09;100.00;99055.26;104453;1257;72643;-62
2023/10/29 04:48:27;;;;;;;2.70;2.40;;;;;;;14.09;100.00;99061.05;104340;1254;61554;-57
2023/10/29 04:50:55;;;;;;;3.00;2.40;;;;;;;14.09;100.00;99067.60;108280;1254;60676;-58
2023/10/29 04:53:23;;;;;;;2.50;2.30;;;;;;;14.10;100.00;99071.38;107865;1256;73651;-58
2023/10/29 04:55:51;;;;;;;3.20;2.70;;;;;;;14.12;100.00;99082.38;104756;1257;69038;-59
2023/10/29 04:58:18;;;;;;;;;;;;;;;14.12;100.00;99080.91;104348;1254;72534;-58
2023/10/29 05:00:46;;;;;;;4.20;2.40;;;;;;;14.16;100.00;99082.61;104736;1254;61396;-58
2023/10/29 05:03:14;;;;;;;2.70;2.50;;;;;;;14.18;100.00;99084.98;104426;1257;60542;-58
2023/10/29 05:05:42;;;;;;;3.00;2.20;;;;;;;14.18;100.00;99086.73;104456;1257;74495;-59
2023/10/29 05:08:09;;;;;;;2.60;2.40;;;;;;;14.20;100.00;99091.91;104386;1269;69071;-57
2023/10/29 05:10:37;;;;;;;2.40;2.20;;;;;;;14.25;100.00;99090.48;104434;1263;72184;-58
2023/10/29 05:13:05;;;;;;;2.00;1.90;;;;;;;14.21;100.00;99099.89;104333;1258;61797;-56
2023/10/29 05:15:32;;;;;;;2.10;2.00;;;;;;;14.19;100.00;99107.42;104360;1256;59694;-55
2023/10/29 05:18:00;;;;;;;2.80;2.60;;;;;;;14.19;100.00;99107.29;104563;1257;73587;-55
2023/10/29 05:20:28;;;;;;;3.70;3.40;;;;;;;14.18;100.00;99108.55;104571;1256;69350;-57
2023/10/29 05:22:57;;;;;;;;;;;;;;;14.24;100.00;99117.04;104739;1255;71502;-56
2023/10/29 05:25:25;;;;;;;4.10;3.30;;;;;;;14.24;100.00;99122.84;104337;1255;62350;-56
2023/10/29 05:27:53;;;;;;;4.00;3.60;;;;;;;14.22;100.00;99125.76;104353;1252;60705;-59
2023/10/29 05:30:21;;;;;;;6.20;3.50;;;;;;;14.21;100.00;99135.52;104445;1256;73563;-62
2023/10/29 05:32:49;;;;;;;3.60;3.30;;;;;;;14.24;100.00;99137.25;104333;1256;69037;-62
2023/10/29 05:35:17;;;;;;;4.30;3.90;;;;;;;14.29;100.00;99141.20;104322;1257;73376;-60
2023/10/29 05:37:45;;;;;;;4.00;2.70;;;;;;;14.27;100.00;99141.48;104321;1254;61488;-60
2023/10/29 05:40:12;;;;;;;3.10;2.80;;;;;;;14.29;100.00;99148.39;104575;1254;60641;-59
2023/10/29 05:42:40;;;;;;;3.10;2.80;;;;;;;14.31;100.00;99155.86;104320;1259;73699;-59
2023/10/29 05:45:09;;;;;;;2.60;2.40;;;;;;;14.34;100.00;99163.23;104412;1274;69151;-60
2023/10/29 05:47:36;;;;;;;2.70;2.40;;;;;;;14.31;100.00;99171.34;104439;1261;72401;-59
2023/10/29 05:50:05;;;;;;;2.50;2.30;;;;;;;14.31;100.00;99175.80;104404;1259;61463;-59
2023/10/29 05:52:32;;;;;;;4.00;2.40;;;;;;;14.32;100.00;99177.13;108197;1254;59660;-61
2023/10/29 05:55:01;;;;;;;3.70;2.50;;;;;;;14.33;100.00;99185.65;106527;1256;73704;-61
2023/10/29 05:57:29;;;;;;;3.70;2.20;;;;;;;14.32;100.00;99186.65;105125;1257;68110;-59
2023/10/29 05:59:57;;;;;;;;;;;;;;;14.32;100.00;99194.23;104689;1259;72914;-60
2023/10/29 06:02:25;;;;;;;2.70;2.20;;;;;;;14.33;100.00;99200.13;104599;1259;61452;-59
2023/10/29 06:04:52;;;;;;;2.50;2.30;;;;;;;14.34;100.00;99198.99;104346;1260;62357;-60
2023/10/29 06:07:20;;;;;;;;;;;;;;;14.37;100.00;99200.77;104523;1259;73633;-60
2023/10/29 06:09:48;;;;;;;2.50;2.10;;;;;;;14.39;100.00;99204.14;105133;1254;70197;-60
2023/10/29 06:12:16;;;;;;;2.60;2.40;;;;;;;14.45;100.00;99207.64;108180;1254;72454;-61
2023/10/29 06:14:45;;;;;;;2.20;2.00;;;;;;;14.42;100.00;99208.18;105785;1259;62352;-60
2023/10/29 06:17:13;;;;;;;4.30;3.80;;;;;;;14.39;100.00;99213.31;104427;1259;60568;-61
2023/10/29 06:19:53;;;;;;;3.70;2.50;;;;;;;14.38;100.00;99216.21;104465;1262;73639;-61
2023/10/29 06:22:21;;;;;;;2.90;2.30;;;;;;;14.42;100.00;99221.05;104596;1253;70511;-61
2023/10/29 06:24:49;;;;;;;3.20;2.00;;;;;;;14.45;100.00;99220.33;104861;1259;72919;-61
2023/10/29 06:27:17;;;;;;;2.80;2.40;;;;;;;14.49;100.00;99223.61;104477;1259;62363;-61
2023/10/29 06:29:44;;;;;;;5.30;2.40;;;;;;;14.53;100.00;99229.91;104492;1254;60472;-61
2023/10/29 06:32:13;;;;;;;;;;;;;;;14.55;100.00;99232.25;104319;1270;73611;-61
2023/10/29 06:34:40;;;;;;;3.30;2.70;;;;;;;14.56;100.00;99234.97;104397;1254;70324;-61
2023/10/29 06:37:09;;;;;;;3.70;3.40;;;;;;;14.53;100.00;99243.25;104181;1261;72805;-61
2023/10/29 06:39:37;;;;;;;4.20;3.80;;;;;;;14.53;100.00;99242.02;104326;1259;61502;-61
2023/10/29 06:42:05;;;;;;;3.50;3.20;;;;;;;14.51;100.00;99237.07;104327;1275;60543;-63
2023/10/29 06:44:33;;;;;;;4.00;3.20;;;;;;;14.48;100.00;99239.58;104413;1259;73654;-62
2023/10/29 06:47:01;;;;;;;;;;;;;;;14.49;100.00;99244.63;104294;1259;69169;-64
2023/10/29 06:49:28;;;;;;;2.50;2.30;;;;;;;14.46;100.00;99246.91;104330;1269;71751;-59
2023/10/29 06:51:56;;;;;;;3.10;2.90;;;;;;;14.46;100.00;99253.12;104386;1275;61875;-62
2023/10/29 06:54:24;;;;;;;2.60;2.40;;;;;;;14.44;100.00;99261.66;106648;1255;60364;-61
2023/10/29 06:56:52;;;;;;;3.90;3.00;;;;;;;14.45;100.00;99260.23;104498;1259;72769;-60
2023/10/29 06:59:20;;;;;;;3.40;3.10;;;;;;;14.49;100.00;99268.42;105057;1254;69596;-63
2023/10/29 07:01:49;;;;;;;3.40;3.10;;;;;;;14.53;100.00;99270.41;104984;1254;72968;-61
2023/10/29 07:04:17;;;;;;;5.10;3.10;;;;;;;14.56;100.00;99264.79;104756;1254;61355;-61
2023/10/29 07:06:46;;;;;;;4.30;3.80;;;;;;;14.60;100.00;99263.34;104611;1254;59882;-61
2023/10/29 07:09:15;;;;;;;5.30;3.60;;;;;;;14.60;100.00;99259.58;104442;1254;74261;-61
2023/10/29 07:11:43;;;;;;;4.80;3.30;;;;;;;14.61;100.00;99258.81;104414;1260;69183;-61
2023/10/29 07:14:11;;;;;;;;;;;;;;;14.70;100.00;99257.16;104484;1263;72488;-62
2023/10/29 07:16:45;;;;;;;3.70;3.40;;;;;;;14.71;100.00;99257.15;104514;1264;61457;-62
2023/10/29 07:19:13;;;;;;;7.60;4.00;;;;;;;14.70;100.00;99252.45;104457;1273;60568;-62
2023/10/29 07:21:41;;;;;;;9.00;4.30;;;;;;;14.69;100.00;99258.64;104619;1258;73581;-60
2023/10/29 07:24:08;;;;;;;;;;;;;;;14.72;100.00;99259.34;104391;1270;68288;-60
2023/10/29 07:26:36;;;;;;;;;;;;;;;14.78;100.00;99262.29;104324;1276;72310;-62
2023/10/29 07:29:04;;;;;;;4.10;3.70;;;;;;;14.82;100.00;99261.16;104303;1260;61403;-62
2023/10/29 07:31:32;;;;;;;3.40;3.10;;;;;;;14.81;100.00;99259.61;104420;1268;60598;-62
2023/10/29 07:34:00;;;;;;;;;;;;;;;14.86;100.00;99266.02;104489;1258;73630;-62
2023/10/29 07:36:28;;;;;;;3.70;3.30;;;;;;;14.88;100.00;99264.86;104491;1263;69526;-61
2023/10/29 07:38:57;;;;;;;4.70;4.00;;;;;;;14.90;100.00;99271.24;104495;1260;72499;-61
2023/10/29 07:41:25;;;;;;;4.30;3.50;;;;;;;14.91;100.00;99273.93;104658;1256;62393;-60
2023/10/29 07:43:52;;;;;;;4.00;3.70;;;;;;;14.98;100.00;99283.90;104350;1257;60831;-63
2023/10/29 07:46:20;;;;;;;3.90;3.50;;;;;;;15.03;100.00;99282.89;104894;1259;73589;-61
2023/10/29 07:48:48;;;;;;;;;;;;;;;15.06;100.00;99280.21;104604;1259;69328;-61
2023/10/29 07:51:16;;;;;;;7.70;4.10;;;;;;;15.11;100.00;99279.20;104399;1259;72694;-61
2023/10/29 07:53:43;;;;;;;4.50;3.80;;;;;;;15.16;100.00;99275.83;106309;1254;61418;-62
2023/10/29 07:58:28;;;;;;;4.90;4.40;;;;;;;14.78;100.00;99280.42;101592;1303;601167;-61
2023/10/29 08:00:56;;;;;;;;;;;;;;;15.26;100.00;99282.41;103886;1272;61557;-57
2023/10/29 08:03:27;;;;;;;4.60;4.10;;;;;;;15.27;100.00;99270.48;103449;1271;59502;-57
2023/10/29 08:05:55;;;;;;;5.70;4.20;;;;;;;15.32;100.00;99274.04;103832;1271;72015;-57
2023/10/29 08:08:23;;;;;;;7.90;4.90;;;;;;;15.42;100.00;99275.84;103654;1272;69682;-58
2023/10/29 08:10:51;;;;;;;6.30;4.80;;;;;;;15.45;100.00;99271.90;103563;1277;72565;-61
2023/10/29 08:13:18;;;;;;;8.90;4.60;;;;;;;15.54;100.00;99275.73;103762;1270;301524;-61
2023/10/29 08:15:46;;;;;;;8.10;4.50;;;;;;;15.62;100.00;99273.56;106560;1262;60260;-60
2023/10/29 08:18:14;;;;;;;5.00;4.50;;;;;;;15.71;100.00;99275.23;105085;1270;72398;-65
2023/10/29 08:20:42;;;;;;;5.30;4.50;;;;;;;15.78;100.00;99283.83;103936;1284;69190;-60
2023/10/29 08:23:10;;;;;;;6.10;4.30;;;;;;;15.84;100.00;99291.17;104037;1268;72962;-58
2023/10/29 08:25:38;;;;;;;;;;;;;;;15.93;100.00;99292.27;104111;1267;61385;-58
2023/10/29 08:28:07;;;;;;;;;;;;;;;15.99;100.00;99294.86;104200;1264;59697;-58
2023/10/29 08:30:35;;;;;;;5.50;4.40;;;;;;;16.03;100.00;99301.86;104154;1262;72850;-58
2023/10/29 08:33:03;;;;;;;5.50;4.50;;;;;;;16.05;100.00;99304.76;104084;1261;70239;-58
2023/10/29 08:35:30;;;;;;;;;;;;;;;16.11;100.00;99303.75;104225;1273;72212;-58
2023/10/29 08:37:58;;;;;;;6.10;4.50;;;;;;;16.11;100.00;99297.53;104138;1257;61623;-60
2023/10/29 08:40:26;;;;;;;5.00;4.50;;;;;;;16.12;100.00;99298.70;104219;1257;59736;-61
2023/10/29 08:42:54;;;;;;;6.20;4.80;;;;;;;16.19;100.00;99302.13;103938;1255;73866;-63
2023/10/29 08:45:22;;;;;;;7.00;5.40;;;;;;;16.25;100.00;99304.19;104288;1257;69777;-62
2023/10/29 08:48:07;;;;;;;7.20;4.50;;;;;;;16.29;100.00;99315.36;104608;1261;72341;-62
2023/10/29 08:50:35;;;;;;;4.70;4.30;;;;;;;16.33;100.00;99320.59;104387;1257;60230;-60
2023/10/29 08:53:03;;;;;;;5.90;4.50;;;;;;;16.41;100.00;99326.42;105529;1257;59808;-61
2023/10/29 08:55:31;;;;;;;5.90;4.80;;;;;;;16.46;100.00;99327.99;107586;1256;71890;-61
2023/10/29 08:57:59;;;;;;;6.10;5.50;;;;;;;16.51;100.00;99334.70;107471;1256;69969;-62
2023/10/29 09:00:27;;;;;;;5.70;4.90;;;;;;;16.46;100.00;99337.86;107663;1257;72412;-62
2023/10/29 09:03:15;;;;;;;5.40;4.20;;;;;;;16.47;100.00;99336.41;107615;1257;62352;-63
2023/10/29 09:05:43;;;;;;;6.40;4.00;;;;;;;16.55;100.00;99341.11;107669;1256;59716;-63
2023/10/29 09:08:11;;;;;;;;;;;;;;;16.54;100.00;99345.56;107738;1256;72881;-63
2023/10/29 09:10:42;;;;;;;3.30;3.00;;;;;;;16.54;100.00;99348.27;107728;1257;69124;-63
2023/10/29 09:13:11;;;;;;;3.70;3.40;;;;;;;16.55;100.00;99351.36;107757;1256;72333;-62
2023/10/29 09:15:38;;;;;;;;;;;;;;;16.55;100.00;99353.29;107806;1257;61516;-62
2023/10/29 09:18:06;;;;;;;3.20;3.00;;;;;;;16.59;100.00;99357.44;107837;1256;59468;-62
2023/10/29 09:20:34;;;;;;;3.90;2.50;;;;;;;16.62;100.00;99358.13;107769;1256;72916;-62
2023/10/29 09:23:02;;;;;;;3.60;2.70;;;;;;;16.63;100.00;99361.25;107795;1256;69273;-62
2023/10/29 09:25:29;;;;;;;4.30;2.70;;;;;;;16.64;100.00;99363.48;107852;1257;74329;-62
2023/10/29 09:27:58;;;;;;;3.00;2.20;;;;;;;16.67;100.00;99364.51;107778;1258;60594;-61
2023/10/29 09:30:25;;;;;;;2.50;2.20;;;;;;;16.68;100.00;99359.27;107900;1257;60158;-62
2023/10/29 09:32:53;;;;;;;2.50;2.30;;;;;;;16.72;100.00;99359.30;107791;1257;72301;-64
2023/10/29 09:35:24;;;;;;;2.80;2.30;;;;;;;16.80;100.00;99357.35;107931;1257;69182;-63
2023/10/29 09:37:52;;;;;;;4.50;2.30;;;;;;;16.84;100.00;99360.27;107787;1257;72934;-63
2023/10/29 09:40:20;;;;;;;3.10;2.10;;;;;;;16.87;100.00;99362.37;107711;1256;61454;-64
2023/10/29 09:42:55;;;;;;;4.00;2.60;;;;;;;16.89;100.00;99362.88;108411;1254;59818;-62
2023/10/29 09:45:24;;;;;;;2.50;2.30;;;;;;;16.97;100.00;99361.45;108427;1251;73743;-62
2023/10/29 09:47:52;;;;;;;2.80;2.50;;;;;;;17.07;100.00;99364.09;108395;1251;68401;-62
2023/10/29 09:50:21;;;;;;;3.00;2.50;;;;;;;17.16;100.00;99358.59;108535;1253;71707;-63
2023/10/29 09:52:50;;;;;;;2.90;2.30;;;;;;;17.23;100.00;99356.70;108457;1251;61798;-61
2023/10/29 09:55:19;;;;;;;2.60;2.30;;;;;;;17.20;100.00;99352.30;108253;1254;59811;-61
2023/10/29 09:57:48;;;;;;;3.60;2.20;;;;;;;17.26;100.00;99366.23;108301;1252;72875;-61
2023/10/29 10:00:16;;;;;;;2.30;1.80;;;;;;;17.30;100.00;99367.15;108246;1252;69266;-62
2023/10/29 10:02:55;;;;;;;2.10;1.90;;;;;;;17.35;100.00;99362.91;108261;1253;73390;-61
2023/10/29 10:05:24;;;;;;;2.50;2.30;;;;;;;17.40;100.00;99369.98;108215;1251;60703;-61
2023/10/29 10:07:52;;;;;;;2.20;2.00;;;;;;;17.44;100.00;99362.75;108286;1252;60278;-62
2023/10/29 10:10:20;;;;;;;;;;;;;;;17.46;100.00;99369.85;108384;1251;72856;-63
2023/10/29 10:12:49;;;;;;;3.80;2.40;;;;;;;17.50;100.00;99365.80;108375;1251;69596;-63
2023/10/29 10:15:18;;;;;;;2.30;2.10;;;;;;;17.52;100.00;99369.05;108339;1251;72375;-63
2023/10/29 10:17:48;;;;;;;2.70;2.50;;;;;;;17.57;100.00;99367.30;108326;1251;61428;-63
2023/10/29 10:20:19;;;;;;;2.90;2.40;;;;;;;17.65;100.00;99364.88;108453;1251;59786;-62
2023/10/29 10:23:03;;;;;;;2.20;2.00;;;;;;;17.66;100.00;99366.38;108332;1251;72291;-61
2023/10/29 10:25:32;;;;;;;3.30;2.30;;;;;;;17.65;100.00;99369.48;108103;1254;70032;-62
2023/10/29 10:28:00;;;;;;;2.20;2.10;;;;;;;17.63;100.00;99369.80;108218;1254;72372;-61
2023/10/29 10:30:38;;;;;;;2.20;2.00;;;;;;;17.66;100.00;99367.99;108385;1252;61623;-62
2023/10/29 10:33:12;;;;;;;;;;;;;;;17.63;100.00;99361.78;108260;1251;59919;-61
2023/10/29 10:35:40;;;;;;;3.90;2.20;;;;;;;17.64;100.00;99355.20;108455;1252;73270;-61
2023/10/29 10:38:08;;;;;;;3.90;2.10;;;;;;;17.65;100.00;99349.42;108381;1251;69536;-62
2023/10/29 10:40:36;;;;;;;;;;;;;;;17.68;100.00;99343.34;108416;1251;72486;-63
2023/10/29 10:43:05;;;;;;;3.30;2.60;;;;;;;17.74;100.00;99336.72;108441;1251;60577;-63
2023/10/29 10:45:34;;;;;;;2.80;2.30;;;;;;;17.83;100.00;99343.80;108559;1251;60724;-63
2023/10/29 10:48:04;;;;;;;;;;;;;;;17.97;100.00;99349.09;108165;1251;72903;-63
2023/10/29 10:50:32;;;;;;;4.00;2.40;;;;;;;18.13;100.00;99344.02;108404;1252;69247;-63
2023/10/29 10:53:00;;;;;;;4.40;2.30;;;;;;;18.25;100.00;99352.61;108308;1251;72459;-63
2023/10/29 10:55:28;;;;;;;2.40;2.10;;;;;;;18.37;100.00;99357.89;108252;1252;61999;-63
2023/10/29 10:58:16;;;;;;;3.10;2.30;;;;;;;18.47;100.00;99359.36;108309;1252;59707;-62
2023/10/29 11:00:43;;;;;;;;;;;;;;;18.54;100.00;99362.33;108240;1251;73331;-64
2023/10/29 11:03:11;;;;;;;2.80;1.80;;;;;;;18.59;100.00;99365.33;108233;1253;69556;-62
2023/10/29 11:05:58;;;;;;;2.30;2.10;;;;;;;18.57;99.39;99366.17;107851;1253;72379;-62
2023/10/29 11:08:26;;;;;;;2.10;1.90;;;;;;;18.50;99.81;99373.02;108418;1252;61375;-63
2023/10/29 11:10:55;;;;;;;;;;;;;;;18.40;99.67;99376.10;108394;1251;59779;-63
2023/10/29 11:13:22;;;;;;;2.30;1.90;;;;;;;18.37;100.00;99376.67;108417;1251;74190;-63
2023/10/29 11:15:50;;;;;;;2.90;2.20;;;;;;;18.37;99.69;99380.77;108355;1251;68464;-63
2023/10/29 11:18:28;;;;;;;;;;;;;;;18.35;99.95;99380.55;108419;1251;73435;-63
2023/10/29 11:20:56;;;;;;;1.90;1.70;;;;;;;18.38;99.27;99383.52;108438;1253;60719;-62
2023/10/29 11:23:28;;;;;;;1.90;1.80;;;;;;;18.40;100.00;99386.93;108418;1251;59666;-63
2023/10/29 11:26:21;;;;;;;2.90;1.90;;;;;;;18.40;99.16;99386.91;108510;1252;73984;-63
2023/10/29 11:28:51;;;;;;;3.10;2.10;;;;;;;18.47;98.50;99384.61;108528;1251;69465;-63
2023/10/29 11:31:22;;;;;;;2.30;1.90;;;;;;;18.56;98.25;99383.70;108334;1252;72589;-63
2023/10/29 11:33:56;;;;;;;5.40;1.80;;;;;;;18.60;96.56;99381.94;108427;1252;62342;-63
2023/10/29 11:36:38;;;;;;;1.30;1.20;;;;;;;18.64;97.25;99377.17;108442;1251;59927;-64
2023/10/29 11:39:15;;;;;;;3.90;1.80;;;;;;;18.74;96.44;99372.68;108556;1251;73705;-63